sensor_id;sensor_type;location;lat;lon;timestamp;P1;durP1;ratioP1;P2;durP2;ratioP2
1026;SDS011;502;48.746;9.214;2024-01-15T00:00:51;10.50;;;6.20;;
1026;SDS011;502;48.746;9.214;2024-01-15T00:03:19;10.27;;;5.50;;
1026;SDS011;502;48.746;9.214;2024-01-15T00:05:47;12.50;;;6.20;;
1026;SDS011;502;48.746;9.214;2024-01-15T00:08:14;11.87;;;5.97;;
1026;SDS011;502;48.746;9.214;2024-01-15T00:10:40;10.83;;;5.13;;
1026;SDS011;502;48.746;9.214;2024-01-15T00:13:07;11.97;;;5.97;;
1026;SDS011;502;48.746;9.214;2024-01-15T00:15:33;11.13;;;5.70;;
1026;SDS011;502;48.746;9.214;2024-01-15T00:18:00;10.93;;;6.10;;
1026;SDS011;502;48.746;9.214;2024-01-15T00:20:28;8.93;;;6.10;;
1026;SDS011;502;48.746;9.214;2024-01-15T00:22:54;13.10;;;5.80;;
1026;SDS011;502;48.746;9.214;2024-01-15T00:25:21;11.87;;;5.80;;
1026;SDS011;502;48.746;9.214;2024-01-15T00:27:48;15.70;;;6.17;;
1026;SDS011;502;48.746;9.214;2024-01-15T00:30:15;10.63;;;5.57;;
1026;SDS011;502;48.746;9.214;2024-01-15T00:32:42;8.87;;;5.60;;
1026;SDS011;502;48.746;9.214;2024-01-15T00:35:08;13.23;;;6.47;;
1026;SDS011;502;48.746;9.214;2024-01-15T00:37:36;9.10;;;6.00;;
1026;SDS011;502;48.746;9.214;2024-01-15T00:40:03;7.43;;;5.00;;
1026;SDS011;502;48.746;9.214;2024-01-15T00:42:30;7.97;;;5.30;;
1026;SDS011;502;48.746;9.214;2024-01-15T00:44:57;10.80;;;4.57;;
1026;SDS011;502;48.746;9.214;2024-01-15T00:47:24;10.37;;;6.13;;
1026;SDS011;502;48.746;9.214;2024-01-15T00:49:50;9.03;;;5.90;;
1026;SDS011;502;48.746;9.214;2024-01-15T00:52:17;9.43;;;5.77;;
1026;SDS011;502;48.746;9.214;2024-01-15T00:54:45;9.40;;;6.60;;
1026;SDS011;502;48.746;9.214;2024-01-15T00:57:11;12.40;;;6.27;;
1026;SDS011;502;48.746;9.214;2024-01-15T00:59:38;10.50;;;5.47;;
1026;SDS011;502;48.746;9.214;2024-01-15T01:02:05;12.03;;;5.37;;
1026;SDS011;502;48.746;9.214;2024-01-15T01:04:32;14.10;;;5.93;;
1026;SDS011;502;48.746;9.214;2024-01-15T01:06:58;11.30;;;5.20;;
1026;SDS011;502;48.746;9.214;2024-01-15T01:09:25;8.47;;;4.40;;
1026;SDS011;502;48.746;9.214;2024-01-15T01:11:55;11.23;;;6.50;;
1026;SDS011;502;48.746;9.214;2024-01-15T01:14:22;10.97;;;6.13;;
1026;SDS011;502;48.746;9.214;2024-01-15T01:16:48;9.17;;;5.30;;
1026;SDS011;502;48.746;9.214;2024-01-15T01:19:15;11.00;;;6.03;;
1026;SDS011;502;48.746;9.214;2024-01-15T01:21:41;11.13;;;5.40;;
1026;SDS011;502;48.746;9.214;2024-01-15T01:24:08;13.23;;;5.90;;
1026;SDS011;502;48.746;9.214;2024-01-15T01:26:34;6.30;;;4.77;;
1026;SDS011;502;48.746;9.214;2024-01-15T01:29:02;7.40;;;4.60;;
1026;SDS011;502;48.746;9.214;2024-01-15T01:31:29;9.63;;;5.83;;
1026;SDS011;502;48.746;9.214;2024-01-15T01:33:55;6.73;;;5.00;;
1026;SDS011;502;48.746;9.214;2024-01-15T01:36:22;10.63;;;6.30;;
1026;SDS011;502;48.746;9.214;2024-01-15T01:38:49;12.17;;;6.67;;
1026;SDS011;502;48.746;9.214;2024-01-15T01:41:15;10.57;;;5.90;;
1026;SDS011;502;48.746;9.214;2024-01-15T01:43:43;10.23;;;5.17;;
1026;SDS011;502;48.746;9.214;2024-01-15T01:46:11;12.37;;;5.87;;
1026;SDS011;502;48.746;9.214;2024-01-15T01:48:38;10.37;;;5.23;;
1026;SDS011;502;48.746;9.214;2024-01-15T01:51:04;7.37;;;5.17;;
1026;SDS011;502;48.746;9.214;2024-01-15T01:53:31;8.80;;;6.00;;
1026;SDS011;502;48.746;9.214;2024-01-15T01:55:58;8.23;;;5.23;;
1026;SDS011;502;48.746;9.214;2024-01-15T01:58:25;12.30;;;5.80;;
1026;SDS011;502;48.746;9.214;2024-01-15T02:00:52;9.43;;;5.20;;
1026;SDS011;502;48.746;9.214;2024-01-15T02:03:20;11.70;;;5.50;;
1026;SDS011;502;48.746;9.214;2024-01-15T02:05:47;8.40;;;4.67;;
1026;SDS011;502;48.746;9.214;2024-01-15T02:08:15;7.77;;;5.00;;
1026;SDS011;502;48.746;9.214;2024-01-15T02:10:41;11.13;;;5.00;;
1026;SDS011;502;48.746;9.214;2024-01-15T02:13:08;9.93;;;4.50;;
1026;SDS011;502;48.746;9.214;2024-01-15T02:15:34;9.73;;;5.23;;
1026;SDS011;502;48.746;9.214;2024-01-15T02:18:02;10.20;;;4.33;;
1026;SDS011;502;48.746;9.214;2024-01-15T02:20:31;7.50;;;4.83;;
1026;SDS011;502;48.746;9.214;2024-01-15T02:23:06;9.93;;;5.23;;
1026;SDS011;502;48.746;9.214;2024-01-15T02:25:35;9.73;;;5.50;;
1026;SDS011;502;48.746;9.214;2024-01-15T02:28:02;9.83;;;5.97;;
1026;SDS011;502;48.746;9.214;2024-01-15T02:30:30;9.60;;;5.47;;
1026;SDS011;502;48.746;9.214;2024-01-15T02:32:57;9.80;;;4.97;;
1026;SDS011;502;48.746;9.214;2024-01-15T02:35:24;10.90;;;5.43;;
1026;SDS011;502;48.746;9.214;2024-01-15T02:37:50;11.00;;;5.13;;
1026;SDS011;502;48.746;9.214;2024-01-15T02:40:18;7.93;;;4.97;;
1026;SDS011;502;48.746;9.214;2024-01-15T02:42:45;7.80;;;5.03;;
1026;SDS011;502;48.746;9.214;2024-01-15T02:45:11;8.20;;;4.77;;
1026;SDS011;502;48.746;9.214;2024-01-15T02:47:38;7.63;;;4.50;;
1026;SDS011;502;48.746;9.214;2024-01-15T02:50:05;8.00;;;4.70;;
1026;SDS011;502;48.746;9.214;2024-01-15T02:52:32;8.17;;;5.37;;
1026;SDS011;502;48.746;9.214;2024-01-15T02:54:58;9.10;;;5.47;;
1026;SDS011;502;48.746;9.214;2024-01-15T02:57:26;11.00;;;5.50;;
1026;SDS011;502;48.746;9.214;2024-01-15T02:59:53;10.63;;;5.40;;
1026;SDS011;502;48.746;9.214;2024-01-15T03:02:19;8.50;;;5.50;;
1026;SDS011;502;48.746;9.214;2024-01-15T03:04:46;12.20;;;5.70;;
1026;SDS011;502;48.746;9.214;2024-01-15T03:07:13;10.63;;;5.30;;
1026;SDS011;502;48.746;9.214;2024-01-15T03:09:39;8.60;;;4.93;;
1026;SDS011;502;48.746;9.214;2024-01-15T03:12:06;8.77;;;5.30;;
1026;SDS011;502;48.746;9.214;2024-01-15T03:14:34;10.80;;;5.27;;
1026;SDS011;502;48.746;9.214;2024-01-15T03:17:01;9.63;;;5.80;;
1026;SDS011;502;48.746;9.214;2024-01-15T03:19:28;10.47;;;5.20;;
1026;SDS011;502;48.746;9.214;2024-01-15T03:21:55;7.93;;;5.53;;
1026;SDS011;502;48.746;9.214;2024-01-15T03:24:22;8.43;;;5.20;;
1026;SDS011;502;48.746;9.214;2024-01-15T03:26:48;11.00;;;5.50;;
1026;SDS011;502;48.746;9.214;2024-01-15T03:29:15;9.70;;;5.30;;
1026;SDS011;502;48.746;9.214;2024-01-15T03:31:43;8.67;;;5.03;;
1026;SDS011;502;48.746;9.214;2024-01-15T03:34:09;7.80;;;5.30;;
1026;SDS011;502;48.746;9.214;2024-01-15T03:36:36;7.23;;;5.23;;
1026;SDS011;502;48.746;9.214;2024-01-15T03:39:02;14.80;;;6.37;;
1026;SDS011;502;48.746;9.214;2024-01-15T03:41:29;8.33;;;5.87;;
1026;SDS011;502;48.746;9.214;2024-01-15T03:43:56;9.87;;;5.57;;
1026;SDS011;502;48.746;9.214;2024-01-15T03:46:23;10.37;;;5.90;;
1026;SDS011;502;48.746;9.214;2024-01-15T03:48:51;8.30;;;4.07;;
1026;SDS011;502;48.746;9.214;2024-01-15T03:51:18;9.20;;;5.63;;
1026;SDS011;502;48.746;9.214;2024-01-15T03:53:44;8.50;;;5.10;;
1026;SDS011;502;48.746;9.214;2024-01-15T03:56:11;7.60;;;5.30;;
1026;SDS011;502;48.746;9.214;2024-01-15T03:58:38;8.17;;;5.67;;
1026;SDS011;502;48.746;9.214;2024-01-15T04:01:07;8.43;;;6.10;;
1026;SDS011;502;48.746;9.214;2024-01-15T04:03:34;11.43;;;5.57;;
1026;SDS011;502;48.746;9.214;2024-01-15T04:06:02;11.03;;;5.07;;
1026;SDS011;502;48.746;9.214;2024-01-15T04:08:28;9.07;;;4.47;;
1026;SDS011;502;48.746;9.214;2024-01-15T04:10:55;9.93;;;4.67;;
1026;SDS011;502;48.746;9.214;2024-01-15T04:13:22;8.60;;;5.63;;
1026;SDS011;502;48.746;9.214;2024-01-15T04:15:49;9.03;;;4.97;;
1026;SDS011;502;48.746;9.214;2024-01-15T04:18:16;8.77;;;5.27;;
1026;SDS011;502;48.746;9.214;2024-01-15T04:20:42;7.90;;;4.63;;
1026;SDS011;502;48.746;9.214;2024-01-15T04:23:10;8.70;;;5.00;;
1026;SDS011;502;48.746;9.214;2024-01-15T04:25:37;6.90;;;4.43;;
1026;SDS011;502;48.746;9.214;2024-01-15T04:28:06;7.60;;;4.30;;
1026;SDS011;502;48.746;9.214;2024-01-15T04:30:32;9.50;;;5.00;;
1026;SDS011;502;48.746;9.214;2024-01-15T04:32:59;8.70;;;4.63;;
1026;SDS011;502;48.746;9.214;2024-01-15T04:35:26;10.33;;;4.57;;
1026;SDS011;502;48.746;9.214;2024-01-15T04:37:52;9.83;;;5.23;;
1026;SDS011;502;48.746;9.214;2024-01-15T04:40:20;12.90;;;5.90;;
1026;SDS011;502;48.746;9.214;2024-01-15T04:42:46;7.93;;;5.10;;
1026;SDS011;502;48.746;9.214;2024-01-15T04:45:13;9.20;;;5.63;;
1026;SDS011;502;48.746;9.214;2024-01-15T04:47:40;10.07;;;5.57;;
1026;SDS011;502;48.746;9.214;2024-01-15T04:50:07;10.67;;;5.90;;
1026;SDS011;502;48.746;9.214;2024-01-15T04:52:34;9.70;;;5.77;;
1026;SDS011;502;48.746;9.214;2024-01-15T04:55:01;10.43;;;5.30;;
1026;SDS011;502;48.746;9.214;2024-01-15T04:57:29;6.23;;;3.90;;
1026;SDS011;502;48.746;9.214;2024-01-15T04:59:55;10.83;;;5.07;;
1026;SDS011;502;48.746;9.214;2024-01-15T05:02:22;11.07;;;6.37;;
1026;SDS011;502;48.746;9.214;2024-01-15T05:04:48;6.80;;;4.07;;
1026;SDS011;502;48.746;9.214;2024-01-15T05:07:15;9.47;;;5.43;;
1026;SDS011;502;48.746;9.214;2024-01-15T05:09:42;9.17;;;5.33;;
1026;SDS011;502;48.746;9.214;2024-01-15T05:12:08;7.30;;;4.73;;
1026;SDS011;502;48.746;9.214;2024-01-15T05:14:36;7.43;;;3.83;;
1026;SDS011;502;48.746;9.214;2024-01-15T05:17:03;11.27;;;5.00;;
1026;SDS011;502;48.746;9.214;2024-01-15T05:19:29;8.40;;;4.43;;
1026;SDS011;502;48.746;9.214;2024-01-15T05:21:56;7.23;;;4.57;;
1026;SDS011;502;48.746;9.214;2024-01-15T05:24:24;9.10;;;5.37;;
1026;SDS011;502;48.746;9.214;2024-01-15T05:26:51;10.80;;;5.70;;
1026;SDS011;502;48.746;9.214;2024-01-15T05:29:18;8.80;;;5.00;;
1026;SDS011;502;48.746;9.214;2024-01-15T05:31:46;7.10;;;4.93;;
1026;SDS011;502;48.746;9.214;2024-01-15T05:34:12;7.70;;;4.53;;
1026;SDS011;502;48.746;9.214;2024-01-15T05:36:39;8.27;;;5.17;;
1026;SDS011;502;48.746;9.214;2024-01-15T05:39:05;7.23;;;5.00;;
1026;SDS011;502;48.746;9.214;2024-01-15T05:41:32;7.30;;;4.73;;
1026;SDS011;502;48.746;9.214;2024-01-15T05:43:59;8.53;;;5.40;;
1026;SDS011;502;48.746;9.214;2024-01-15T05:46:25;9.93;;;5.47;;
1026;SDS011;502;48.746;9.214;2024-01-15T05:48:54;6.87;;;5.23;;
1026;SDS011;502;48.746;9.214;2024-01-15T05:51:21;12.77;;;4.53;;
1026;SDS011;502;48.746;9.214;2024-01-15T05:53:48;9.90;;;4.70;;
1026;SDS011;502;48.746;9.214;2024-01-15T05:56:14;13.27;;;6.40;;
1026;SDS011;502;48.746;9.214;2024-01-15T05:58:41;14.40;;;6.53;;
1026;SDS011;502;48.746;9.214;2024-01-15T06:01:07;7.77;;;5.30;;
1026;SDS011;502;48.746;9.214;2024-01-15T06:03:34;13.57;;;6.53;;
1026;SDS011;502;48.746;9.214;2024-01-15T06:06:02;11.80;;;6.53;;
1026;SDS011;502;48.746;9.214;2024-01-15T06:08:29;11.10;;;5.70;;
1026;SDS011;502;48.746;9.214;2024-01-15T06:10:55;10.30;;;6.30;;
1026;SDS011;502;48.746;9.214;2024-01-15T06:13:22;10.60;;;5.40;;
1026;SDS011;502;48.746;9.214;2024-01-15T06:15:49;11.20;;;6.47;;
1026;SDS011;502;48.746;9.214;2024-01-15T06:18:15;12.03;;;7.00;;
1026;SDS011;502;48.746;9.214;2024-01-15T06:20:42;10.80;;;6.23;;
1026;SDS011;502;48.746;9.214;2024-01-15T06:23:10;10.40;;;6.47;;
1026;SDS011;502;48.746;9.214;2024-01-15T06:25:36;11.40;;;6.93;;
1026;SDS011;502;48.746;9.214;2024-01-15T06:28:03;12.20;;;5.47;;
1026;SDS011;502;48.746;9.214;2024-01-15T06:30:31;10.20;;;5.87;;
1026;SDS011;502;48.746;9.214;2024-01-15T06:32:57;11.13;;;7.10;;
1026;SDS011;502;48.746;9.214;2024-01-15T06:35:24;9.50;;;6.00;;
1026;SDS011;502;48.746;9.214;2024-01-15T06:37:50;10.07;;;5.80;;
1026;SDS011;502;48.746;9.214;2024-01-15T06:40:18;12.07;;;6.10;;
1026;SDS011;502;48.746;9.214;2024-01-15T06:42:45;11.60;;;6.63;;
1026;SDS011;502;48.746;9.214;2024-01-15T06:45:11;12.50;;;6.20;;
1026;SDS011;502;48.746;9.214;2024-01-15T06:47:38;10.27;;;6.03;;
1026;SDS011;502;48.746;9.214;2024-01-15T06:50:05;10.93;;;5.70;;
1026;SDS011;502;48.746;9.214;2024-01-15T06:52:32;12.73;;;6.67;;
1026;SDS011;502;48.746;9.214;2024-01-15T06:54:59;10.70;;;6.43;;
1026;SDS011;502;48.746;9.214;2024-01-15T06:57:27;12.63;;;6.37;;
1026;SDS011;502;48.746;9.214;2024-01-15T06:59:54;8.60;;;5.40;;
1026;SDS011;502;48.746;9.214;2024-01-15T07:02:20;12.13;;;6.63;;
1026;SDS011;502;48.746;9.214;2024-01-15T07:04:47;9.10;;;5.70;;
1026;SDS011;502;48.746;9.214;2024-01-15T07:07:14;8.70;;;5.33;;
1026;SDS011;502;48.746;9.214;2024-01-15T07:09:40;8.47;;;4.87;;
1026;SDS011;502;48.746;9.214;2024-01-15T07:12:07;13.73;;;6.37;;
1026;SDS011;502;48.746;9.214;2024-01-15T07:14:35;7.23;;;5.80;;
1026;SDS011;502;48.746;9.214;2024-01-15T07:17:02;8.13;;;5.10;;
1026;SDS011;502;48.746;9.214;2024-01-15T07:19:30;10.33;;;5.23;;
1026;SDS011;502;48.746;9.214;2024-01-15T07:21:56;11.10;;;6.13;;
1026;SDS011;502;48.746;9.214;2024-01-15T07:24:23;8.93;;;5.70;;
1026;SDS011;502;48.746;9.214;2024-01-15T07:26:50;8.97;;;5.83;;
1026;SDS011;502;48.746;9.214;2024-01-15T07:29:16;7.60;;;5.50;;
1026;SDS011;502;48.746;9.214;2024-01-15T07:31:48;7.30;;;5.83;;
1026;SDS011;502;48.746;9.214;2024-01-15T07:34:15;8.17;;;5.53;;
1026;SDS011;502;48.746;9.214;2024-01-15T07:36:43;9.70;;;5.93;;
1026;SDS011;502;48.746;9.214;2024-01-15T07:39:10;9.60;;;6.07;;
1026;SDS011;502;48.746;9.214;2024-01-15T07:41:37;7.60;;;4.83;;
1026;SDS011;502;48.746;9.214;2024-01-15T07:44:04;9.27;;;5.87;;
1026;SDS011;502;48.746;9.214;2024-01-15T07:46:31;11.63;;;6.00;;
1026;SDS011;502;48.746;9.214;2024-01-15T07:48:59;9.67;;;5.67;;
1026;SDS011;502;48.746;9.214;2024-01-15T07:51:29;10.50;;;6.10;;
1026;SDS011;502;48.746;9.214;2024-01-15T07:53:56;11.07;;;5.90;;
1026;SDS011;502;48.746;9.214;2024-01-15T07:56:23;8.80;;;5.23;;
1026;SDS011;502;48.746;9.214;2024-01-15T07:58:50;9.83;;;6.00;;
1026;SDS011;502;48.746;9.214;2024-01-15T08:01:16;8.67;;;5.80;;
1026;SDS011;502;48.746;9.214;2024-01-15T08:03:43;8.60;;;5.57;;
1026;SDS011;502;48.746;9.214;2024-01-15T08:06:11;8.10;;;5.20;;
1026;SDS011;502;48.746;9.214;2024-01-15T08:08:38;9.50;;;5.73;;
1026;SDS011;502;48.746;9.214;2024-01-15T08:11:04;7.60;;;4.67;;
1026;SDS011;502;48.746;9.214;2024-01-15T08:13:31;7.30;;;5.00;;
1026;SDS011;502;48.746;9.214;2024-01-15T08:15:58;9.10;;;5.40;;
1026;SDS011;502;48.746;9.214;2024-01-15T08:18:24;10.10;;;6.10;;
1026;SDS011;502;48.746;9.214;2024-01-15T08:20:51;7.97;;;5.77;;
1026;SDS011;502;48.746;9.214;2024-01-15T08:23:20;10.00;;;5.60;;
1026;SDS011;502;48.746;9.214;2024-01-15T08:25:47;8.00;;;4.73;;
1026;SDS011;502;48.746;9.214;2024-01-15T08:28:13;8.50;;;4.83;;
1026;SDS011;502;48.746;9.214;2024-01-15T08:30:40;8.30;;;4.87;;
1026;SDS011;502;48.746;9.214;2024-01-15T08:33:07;7.90;;;4.90;;
1026;SDS011;502;48.746;9.214;2024-01-15T08:35:33;11.03;;;5.30;;
1026;SDS011;502;48.746;9.214;2024-01-15T08:38:00;7.87;;;5.03;;
1026;SDS011;502;48.746;9.214;2024-01-15T08:40:29;9.10;;;5.13;;
1026;SDS011;502;48.746;9.214;2024-01-15T08:42:58;7.50;;;4.83;;
1026;SDS011;502;48.746;9.214;2024-01-15T08:45:25;8.23;;;4.90;;
1026;SDS011;502;48.746;9.214;2024-01-15T08:47:51;6.83;;;4.43;;
1026;SDS011;502;48.746;9.214;2024-01-15T08:50:18;6.77;;;4.50;;
1026;SDS011;502;48.746;9.214;2024-01-15T08:52:45;9.23;;;5.13;;
1026;SDS011;502;48.746;9.214;2024-01-15T08:55:12;6.80;;;4.50;;
1026;SDS011;502;48.746;9.214;2024-01-15T08:57:40;7.00;;;4.80;;
1026;SDS011;502;48.746;9.214;2024-01-15T09:00:07;8.47;;;4.40;;
1026;SDS011;502;48.746;9.214;2024-01-15T09:02:34;5.93;;;4.30;;
1026;SDS011;502;48.746;9.214;2024-01-15T09:05:01;7.67;;;4.97;;
1026;SDS011;502;48.746;9.214;2024-01-15T09:07:29;7.30;;;4.73;;
1026;SDS011;502;48.746;9.214;2024-01-15T09:09:56;9.00;;;5.00;;
1026;SDS011;502;48.746;9.214;2024-01-15T09:12:24;6.60;;;4.27;;
1026;SDS011;502;48.746;9.214;2024-01-15T09:14:54;5.63;;;4.10;;
1026;SDS011;502;48.746;9.214;2024-01-15T09:17:21;6.80;;;3.83;;
1026;SDS011;502;48.746;9.214;2024-01-15T09:19:48;6.90;;;4.33;;
1026;SDS011;502;48.746;9.214;2024-01-15T09:22:15;7.30;;;3.87;;
1026;SDS011;502;48.746;9.214;2024-01-15T09:24:43;6.57;;;3.63;;
1026;SDS011;502;48.746;9.214;2024-01-15T09:27:10;5.93;;;3.93;;
1026;SDS011;502;48.746;9.214;2024-01-15T09:29:46;3.90;;;2.77;;
1026;SDS011;502;48.746;9.214;2024-01-15T09:32:48;5.70;;;3.83;;
1026;SDS011;502;48.746;9.214;2024-01-15T09:35:15;8.13;;;3.80;;
1026;SDS011;502;48.746;9.214;2024-01-15T09:37:46;4.30;;;3.27;;
1026;SDS011;502;48.746;9.214;2024-01-15T09:40:17;5.70;;;3.30;;
1026;SDS011;502;48.746;9.214;2024-01-15T09:42:46;5.43;;;4.23;;
1026;SDS011;502;48.746;9.214;2024-01-15T09:45:15;6.70;;;3.30;;
1026;SDS011;502;48.746;9.214;2024-01-15T09:47:42;5.37;;;3.30;;
1026;SDS011;502;48.746;9.214;2024-01-15T09:50:09;4.00;;;3.30;;
1026;SDS011;502;48.746;9.214;2024-01-15T09:52:35;4.13;;;3.03;;
1026;SDS011;502;48.746;9.214;2024-01-15T09:55:02;7.60;;;3.83;;
1026;SDS011;502;48.746;9.214;2024-01-15T09:57:30;4.97;;;3.20;;
1026;SDS011;502;48.746;9.214;2024-01-15T09:59:57;6.37;;;3.17;;
1026;SDS011;502;48.746;9.214;2024-01-15T10:02:27;6.43;;;3.20;;
1026;SDS011;502;48.746;9.214;2024-01-15T10:04:55;5.17;;;3.00;;
1026;SDS011;502;48.746;9.214;2024-01-15T10:07:21;4.30;;;3.07;;
1026;SDS011;502;48.746;9.214;2024-01-15T10:09:49;7.33;;;3.60;;
1026;SDS011;502;48.746;9.214;2024-01-15T10:12:16;4.17;;;3.00;;
1026;SDS011;502;48.746;9.214;2024-01-15T10:14:46;4.30;;;2.97;;
1026;SDS011;502;48.746;9.214;2024-01-15T10:17:14;5.90;;;3.80;;
1026;SDS011;502;48.746;9.214;2024-01-15T10:19:44;5.10;;;3.53;;
1026;SDS011;502;48.746;9.214;2024-01-15T10:22:12;8.90;;;4.10;;
1026;SDS011;502;48.746;9.214;2024-01-15T10:24:40;5.00;;;3.40;;
1026;SDS011;502;48.746;9.214;2024-01-15T10:27:07;8.87;;;4.10;;
1026;SDS011;502;48.746;9.214;2024-01-15T10:29:34;6.10;;;3.70;;
1026;SDS011;502;48.746;9.214;2024-01-15T10:32:05;5.47;;;3.03;;
1026;SDS011;502;48.746;9.214;2024-01-15T10:34:33;4.73;;;3.57;;
1026;SDS011;502;48.746;9.214;2024-01-15T10:37:04;5.40;;;3.80;;
1026;SDS011;502;48.746;9.214;2024-01-15T10:39:30;4.73;;;3.67;;
1026;SDS011;502;48.746;9.214;2024-01-15T10:41:57;5.27;;;3.90;;
1026;SDS011;502;48.746;9.214;2024-01-15T10:44:24;5.37;;;3.77;;
1026;SDS011;502;48.746;9.214;2024-01-15T10:46:51;6.50;;;3.90;;
1026;SDS011;502;48.746;9.214;2024-01-15T10:49:18;6.30;;;3.70;;
1026;SDS011;502;48.746;9.214;2024-01-15T10:51:45;8.17;;;4.30;;
1026;SDS011;502;48.746;9.214;2024-01-15T10:54:13;7.10;;;3.73;;
1026;SDS011;502;48.746;9.214;2024-01-15T10:56:40;8.23;;;4.07;;
1026;SDS011;502;48.746;9.214;2024-01-15T10:59:07;5.60;;;3.60;;
1026;SDS011;502;48.746;9.214;2024-01-15T11:01:35;6.40;;;4.00;;
1026;SDS011;502;48.746;9.214;2024-01-15T11:04:02;9.20;;;4.53;;
1026;SDS011;502;48.746;9.214;2024-01-15T11:06:29;6.63;;;4.10;;
1026;SDS011;502;48.746;9.214;2024-01-15T11:09:07;7.43;;;4.70;;
1026;SDS011;502;48.746;9.214;2024-01-15T11:11:36;5.80;;;3.87;;
1026;SDS011;502;48.746;9.214;2024-01-15T11:14:06;5.30;;;3.83;;
1026;SDS011;502;48.746;9.214;2024-01-15T11:16:53;6.77;;;3.90;;
1026;SDS011;502;48.746;9.214;2024-01-15T11:19:20;5.30;;;3.57;;
1026;SDS011;502;48.746;9.214;2024-01-15T11:21:46;6.87;;;3.87;;
1026;SDS011;502;48.746;9.214;2024-01-15T11:24:32;3.70;;;3.10;;
1026;SDS011;502;48.746;9.214;2024-01-15T11:27:04;5.17;;;4.20;;
1026;SDS011;502;48.746;9.214;2024-01-15T11:29:31;5.37;;;4.20;;
1026;SDS011;502;48.746;9.214;2024-01-15T11:32:00;5.53;;;3.93;;
1026;SDS011;502;48.746;9.214;2024-01-15T11:34:49;5.73;;;4.47;;
1026;SDS011;502;48.746;9.214;2024-01-15T11:37:20;6.80;;;4.07;;
1026;SDS011;502;48.746;9.214;2024-01-15T11:39:50;6.10;;;3.53;;
1026;SDS011;502;48.746;9.214;2024-01-15T11:42:19;7.33;;;4.70;;
1026;SDS011;502;48.746;9.214;2024-01-15T11:44:46;6.00;;;4.00;;
1026;SDS011;502;48.746;9.214;2024-01-15T11:47:13;6.60;;;4.10;;
1026;SDS011;502;48.746;9.214;2024-01-15T11:49:51;5.77;;;3.87;;
1026;SDS011;502;48.746;9.214;2024-01-15T11:52:31;7.40;;;3.70;;
1026;SDS011;502;48.746;9.214;2024-01-15T11:55:01;7.33;;;4.30;;
1026;SDS011;502;48.746;9.214;2024-01-15T11:57:40;6.57;;;4.53;;
1026;SDS011;502;48.746;9.214;2024-01-15T12:00:08;6.03;;;4.10;;
1026;SDS011;502;48.746;9.214;2024-01-15T12:02:38;6.07;;;4.03;;
1026;SDS011;502;48.746;9.214;2024-01-15T12:05:05;6.87;;;3.97;;
1026;SDS011;502;48.746;9.214;2024-01-15T12:07:32;6.83;;;4.70;;
1026;SDS011;502;48.746;9.214;2024-01-15T12:09:59;5.97;;;4.07;;
1026;SDS011;502;48.746;9.214;2024-01-15T12:12:29;6.37;;;4.80;;
1026;SDS011;502;48.746;9.214;2024-01-15T12:15:03;4.00;;;3.20;;
1026;SDS011;502;48.746;9.214;2024-01-15T12:17:30;6.20;;;4.03;;
1026;SDS011;502;48.746;9.214;2024-01-15T12:19:57;6.00;;;4.07;;
1026;SDS011;502;48.746;9.214;2024-01-15T12:22:23;5.70;;;3.73;;
1026;SDS011;502;48.746;9.214;2024-01-15T12:24:50;8.00;;;4.30;;
1026;SDS011;502;48.746;9.214;2024-01-15T12:27:16;6.07;;;3.80;;
1026;SDS011;502;48.746;9.214;2024-01-15T12:29:43;6.47;;;4.23;;
1026;SDS011;502;48.746;9.214;2024-01-15T12:32:24;7.53;;;4.83;;
1026;SDS011;502;48.746;9.214;2024-01-15T12:34:51;5.90;;;4.00;;
1026;SDS011;502;48.746;9.214;2024-01-15T12:37:18;8.97;;;4.77;;
1026;SDS011;502;48.746;9.214;2024-01-15T12:39:45;5.77;;;4.00;;
1026;SDS011;502;48.746;9.214;2024-01-15T12:42:11;7.00;;;4.47;;
1026;SDS011;502;48.746;9.214;2024-01-15T12:44:40;5.83;;;4.33;;
1026;SDS011;502;48.746;9.214;2024-01-15T12:47:06;5.87;;;4.13;;
1026;SDS011;502;48.746;9.214;2024-01-15T12:49:34;7.10;;;4.53;;
1026;SDS011;502;48.746;9.214;2024-01-15T12:52:02;6.83;;;4.77;;
1026;SDS011;502;48.746;9.214;2024-01-15T12:54:29;7.67;;;4.30;;
1026;SDS011;502;48.746;9.214;2024-01-15T12:56:55;8.13;;;5.37;;
1026;SDS011;502;48.746;9.214;2024-01-15T12:59:22;6.20;;;4.70;;
1026;SDS011;502;48.746;9.214;2024-01-15T13:01:49;6.77;;;4.67;;
1026;SDS011;502;48.746;9.214;2024-01-15T13:04:21;7.00;;;4.87;;
1026;SDS011;502;48.746;9.214;2024-01-15T13:06:50;7.23;;;4.30;;
1026;SDS011;502;48.746;9.214;2024-01-15T13:09:17;6.30;;;4.20;;
1026;SDS011;502;48.746;9.214;2024-01-15T13:11:43;6.63;;;3.90;;
1026;SDS011;502;48.746;9.214;2024-01-15T13:14:11;9.87;;;4.90;;
1026;SDS011;502;48.746;9.214;2024-01-15T13:16:38;6.97;;;4.93;;
1026;SDS011;502;48.746;9.214;2024-01-15T13:19:06;6.73;;;4.77;;
1026;SDS011;502;48.746;9.214;2024-01-15T13:21:33;7.90;;;4.60;;
1026;SDS011;502;48.746;9.214;2024-01-15T13:24:01;6.13;;;4.40;;
1026;SDS011;502;48.746;9.214;2024-01-15T13:26:28;6.93;;;4.20;;
1026;SDS011;502;48.746;9.214;2024-01-15T13:28:55;8.13;;;4.60;;
1026;SDS011;502;48.746;9.214;2024-01-15T13:31:21;6.70;;;4.57;;
1026;SDS011;502;48.746;9.214;2024-01-15T13:33:48;8.87;;;4.53;;
1026;SDS011;502;48.746;9.214;2024-01-15T13:36:15;8.40;;;4.83;;
1026;SDS011;502;48.746;9.214;2024-01-15T13:38:42;6.73;;;4.53;;
1026;SDS011;502;48.746;9.214;2024-01-15T13:41:10;8.80;;;3.97;;
1026;SDS011;502;48.746;9.214;2024-01-15T13:43:36;5.43;;;3.60;;
1026;SDS011;502;48.746;9.214;2024-01-15T13:48:54;6.63;;;4.60;;
1026;SDS011;502;48.746;9.214;2024-01-15T13:51:21;7.63;;;4.83;;
1026;SDS011;502;48.746;9.214;2024-01-15T13:53:48;5.90;;;4.30;;
1026;SDS011;502;48.746;9.214;2024-01-15T13:56:16;6.90;;;4.70;;
1026;SDS011;502;48.746;9.214;2024-01-15T13:58:43;8.30;;;5.07;;
1026;SDS011;502;48.746;9.214;2024-01-15T14:01:10;8.67;;;4.70;;
1026;SDS011;502;48.746;9.214;2024-01-15T14:03:37;4.20;;;3.60;;
1026;SDS011;502;48.746;9.214;2024-01-15T14:06:04;6.77;;;4.57;;
1026;SDS011;502;48.746;9.214;2024-01-15T14:08:34;5.90;;;4.53;;
1026;SDS011;502;48.746;9.214;2024-01-15T14:11:01;9.60;;;5.77;;
1026;SDS011;502;48.746;9.214;2024-01-15T14:13:32;9.20;;;4.83;;
1026;SDS011;502;48.746;9.214;2024-01-15T14:15:59;6.93;;;4.67;;
1026;SDS011;502;48.746;9.214;2024-01-15T14:18:26;8.10;;;5.73;;
1026;SDS011;502;48.746;9.214;2024-01-15T14:20:53;7.40;;;5.13;;
1026;SDS011;502;48.746;9.214;2024-01-15T14:23:19;6.20;;;4.77;;
1026;SDS011;502;48.746;9.214;2024-01-15T14:25:46;6.17;;;4.37;;
1026;SDS011;502;48.746;9.214;2024-01-15T14:28:13;7.60;;;5.20;;
1026;SDS011;502;48.746;9.214;2024-01-15T14:30:41;7.60;;;4.50;;
1026;SDS011;502;48.746;9.214;2024-01-15T14:33:08;5.43;;;4.83;;
1026;SDS011;502;48.746;9.214;2024-01-15T14:35:34;7.70;;;4.87;;
1026;SDS011;502;48.746;9.214;2024-01-15T14:38:01;6.57;;;4.70;;
1026;SDS011;502;48.746;9.214;2024-01-15T14:40:28;3.73;;;3.37;;
1026;SDS011;502;48.746;9.214;2024-01-15T14:42:54;4.80;;;3.00;;
1026;SDS011;502;48.746;9.214;2024-01-15T14:45:23;3.97;;;2.83;;
1026;SDS011;502;48.746;9.214;2024-01-15T14:47:54;4.30;;;2.23;;
1026;SDS011;502;48.746;9.214;2024-01-15T14:50:22;4.87;;;3.23;;
1026;SDS011;502;48.746;9.214;2024-01-15T14:52:53;5.73;;;3.40;;
1026;SDS011;502;48.746;9.214;2024-01-15T14:55:32;5.97;;;3.70;;
1026;SDS011;502;48.746;9.214;2024-01-15T14:57:58;6.87;;;3.40;;
1026;SDS011;502;48.746;9.214;2024-01-15T15:00:25;5.20;;;3.70;;
1026;SDS011;502;48.746;9.214;2024-01-15T15:02:52;7.33;;;4.13;;
1026;SDS011;502;48.746;9.214;2024-01-15T15:05:20;6.53;;;4.60;;
1026;SDS011;502;48.746;9.214;2024-01-15T15:07:46;5.83;;;4.30;;
1026;SDS011;502;48.746;9.214;2024-01-15T15:10:13;6.40;;;4.50;;
1026;SDS011;502;48.746;9.214;2024-01-15T15:12:40;6.50;;;5.03;;
1026;SDS011;502;48.746;9.214;2024-01-15T15:15:09;6.27;;;4.10;;
1026;SDS011;502;48.746;9.214;2024-01-15T15:17:37;6.93;;;5.10;;
1026;SDS011;502;48.746;9.214;2024-01-15T15:20:04;9.57;;;6.20;;
1026;SDS011;502;48.746;9.214;2024-01-15T15:22:45;7.27;;;5.10;;
1026;SDS011;502;48.746;9.214;2024-01-15T15:25:12;6.77;;;4.63;;
1026;SDS011;502;48.746;9.214;2024-01-15T15:27:38;6.50;;;5.10;;
1026;SDS011;502;48.746;9.214;2024-01-15T15:30:06;6.17;;;5.23;;
1026;SDS011;502;48.746;9.214;2024-01-15T15:32:33;8.00;;;5.07;;